Time;durP1;ratioP1;P1;durP2;ratioP2;P2;SDS_P1;SDS_P2;PMS_P1;PMS_P2;Temp;Humidity;BMP_temperature;BMP_pressure;BME280_temperature;BME280_humidity;BME280_pressure;Samples;Min_cycle;Max_cycle;Signal;HPM_P1;HPM_P2
2021/11/29 00:01:39;;;;;;;6.57;5.87;;;3.00;99.90;;;;;;5032319;28;20864;-72
2021/11/29 00:04:08;;;;;;;13.33;7.83;;;3.00;99.90;;;;;;5033522;28;20476;-73
2021/11/29 00:06:37;;;;;;;12.07;7.10;;;3.00;99.90;;;;;;5031731;28;20904;-73
2021/11/29 00:09:03;;;;;;;11.53;7.33;;;3.10;99.90;;;;;;5031877;28;20865;-71
2021/11/29 00:11:29;;;;;;;8.63;5.97;;;3.10;99.90;;;;;;5033398;28;20416;-72
2021/11/29 00:13:55;;;;;;;8.67;4.40;;;3.10;99.90;;;;;;5033192;28;20535;-71
2021/11/29 00:16:20;;;;;;;10.90;5.63;;;3.10;99.90;;;;;;5033266;28;20202;-72
2021/11/29 00:18:46;;;;;;;9.47;4.90;;;3.10;99.90;;;;;;5032729;28;20212;-72
2021/11/29 00:21:13;;;;;;;6.23;4.17;;;3.20;99.90;;;;;;5033032;28;20525;-73
2021/11/29 00:23:40;;;;;;;7.63;5.47;;;3.10;99.90;;;;;;5031573;28;20217;-72
2021/11/29 00:26:06;;;;;;;9.20;5.87;;;3.00;99.90;;;;;;5032721;28;20523;-72
2021/11/29 00:28:32;;;;;;;12.73;7.40;;;3.00;99.90;;;;;;5033021;28;20414;-72
2021/11/29 00:30:58;;;;;;;14.73;6.17;;;3.00;99.90;;;;;;5032849;28;20886;-72
2021/11/29 00:33:23;;;;;;;9.57;6.53;;;3.00;99.90;;;;;;5032839;28;20409;-71
2021/11/29 00:35:49;;;;;;;8.30;5.23;;;2.90;99.90;;;;;;5032804;28;20706;-73
2021/11/29 00:38:15;;;;;;;12.50;8.20;;;3.00;99.90;;;;;;5032844;28;20208;-72
2021/11/29 00:40:41;;;;;;;10.23;6.43;;;2.90;99.90;;;;;;5032998;28;20199;-72
2021/11/29 00:43:07;;;;;;;12.43;6.47;;;2.90;99.90;;;;;;5032828;28;20668;-73
2021/11/29 00:45:33;;;;;;;10.27;6.57;;;2.90;99.90;;;;;;5032617;28;20513;-73
2021/11/29 00:47:59;;;;;;;13.07;7.37;;;2.90;99.90;;;;;;5032870;28;20259;-74
2021/11/29 00:50:25;;;;;;;11.50;5.40;;;3.00;99.90;;;;;;5032649;28;20461;-73
2021/11/29 00:52:54;;;;;;;8.23;5.87;;;3.10;99.90;;;;;;5032879;28;20411;-72
2021/11/29 00:55:22;;;;;;;11.17;7.60;;;3.00;99.90;;;;;;5032661;28;20177;-73
2021/11/29 00:57:48;;;;;;;20.73;7.23;;;3.10;99.90;;;;;;5037774;28;20406;-73
2021/11/29 01:00:17;;;;;;;13.63;7.40;;;3.00;99.90;;;;;;5038951;28;20469;-73
2021/11/29 01:02:46;;;;;;;9.90;6.30;;;3.00;99.90;;;;;;5037496;28;20210;-76
2021/11/29 01:05:15;;;;;;;16.50;7.57;;;3.00;99.90;;;;;;5037575;28;20419;-73
2021/11/29 01:07:41;;;;;;;10.27;6.57;;;3.00;99.90;;;;;;5025346;28;20514;-72
2021/11/29 01:10:09;;;;;;;11.97;6.13;;;3.10;99.90;;;;;;5022343;28;20758;-72
2021/11/29 01:12:35;;;;;;;8.30;5.57;;;2.90;99.90;;;;;;5039431;28;20839;-72
2021/11/29 01:15:01;;;;;;;9.67;6.47;;;2.90;99.90;;;;;;5039201;28;20418;-73
2021/11/29 01:17:27;;;;;;;10.17;7.07;;;3.00;99.90;;;;;;5038469;28;20426;-73
2021/11/29 01:19:55;;;;;;;11.77;5.93;;;3.00;99.90;;;;;;5038342;28;20807;-73
2021/11/29 01:22:21;;;;;;;12.43;7.93;;;3.00;99.90;;;;;;5034257;28;20262;-72
2021/11/29 01:24:47;;;;;;;13.60;8.30;;;2.90;99.90;;;;;;5032844;28;20441;-71
2021/11/29 01:27:13;;;;;;;16.10;9.17;;;2.90;99.90;;;;;;5031964;28;20430;-72
2021/11/29 01:29:38;;;;;;;9.57;6.07;;;2.80;99.90;;;;;;5034388;28;20232;-73
2021/11/29 01:32:04;;;;;;;9.60;6.17;;;2.90;99.90;;;;;;5031374;28;20175;-73
2021/11/29 01:34:30;;;;;;;7.60;5.37;;;2.90;99.90;;;;;;5031871;28;20221;-73
2021/11/29 01:36:56;;;;;;;14.57;7.90;;;3.00;99.90;;;;;;5031719;28;20843;-72
2021/11/29 01:39:22;;;;;;;9.53;7.70;;;2.90;99.90;;;;;;5031804;28;20578;-71
2021/11/29 01:41:49;;;;;;;14.60;5.77;;;2.90;99.90;;;;;;5031877;28;20163;-71
2021/11/29 01:44:16;;;;;;;10.07;7.77;;;2.90;99.90;;;;;;5031813;28;20429;-74
2021/11/29 01:46:44;;;;;;;8.13;4.13;;;2.90;99.90;;;;;;5031657;28;20446;-71
2021/11/29 01:49:10;;;;;;;12.10;7.80;;;2.90;99.90;;;;;;5031757;28;20406;-71
2021/11/29 01:51:35;;;;;;;7.03;6.20;;;2.90;99.90;;;;;;5031677;28;20459;-73
2021/11/29 01:54:01;;;;;;;12.77;7.90;;;3.00;99.90;;;;;;5031746;28;20589;-72
2021/11/29 01:56:27;;;;;;;8.63;5.07;;;3.00;99.90;;;;;;5031690;28;20201;-73
2021/11/29 01:58:53;;;;;;;12.10;5.83;;;3.10;99.90;;;;;;5031482;28;21016;-71
2021/11/29 02:01:21;;;;;;;10.10;6.33;;;3.00;99.90;;;;;;5030044;28;20182;-72
2021/11/29 02:03:51;;;;;;;11.37;6.03;;;3.00;99.90;;;;;;5031745;28;20681;-71
2021/11/29 02:06:17;;;;;;;13.97;6.20;;;3.00;99.90;;;;;;5031810;28;20945;-72
2021/11/29 02:08:46;;;;;;;11.90;7.50;;;2.80;99.90;;;;;;5031485;28;20414;-73
2021/11/29 02:11:11;;;;;;;13.10;8.00;;;2.70;99.90;;;;;;5031532;28;20789;-74
2021/11/29 02:13:37;;;;;;;10.50;5.97;;;2.70;99.90;;;;;;5031451;28;20444;-74
2021/11/29 02:16:05;;;;;;;9.33;7.33;;;2.80;99.90;;;;;;5031506;28;20697;-74
2021/11/29 02:18:33;;;;;;;14.57;8.33;;;2.80;99.90;;;;;;5031605;28;20215;-72
2021/11/29 02:21:02;;;;;;;9.63;5.30;;;2.80;99.90;;;;;;5031510;28;21043;-73
2021/11/29 02:23:32;;;;;;;10.37;6.57;;;2.80;99.90;;;;;;5031934;28;20418;-73
2021/11/29 02:25:57;;;;;;;12.27;6.53;;;2.70;99.90;;;;;;5031511;28;20425;-73
2021/11/29 02:28:23;;;;;;;15.80;7.10;;;2.70;99.90;;;;;;5031945;28;20913;-72
2021/11/29 02:30:49;;;;;;;17.57;8.13;;;2.70;99.90;;;;;;5031943;28;20226;-70
2021/11/29 02:33:18;;;;;;;14.70;6.63;;;2.60;99.90;;;;;;5031074;28;20410;-73
2021/11/29 02:35:44;;;;;;;20.30;8.53;;;2.60;99.90;;;;;;5032107;28;21020;-75
2021/11/29 02:38:09;;;;;;;8.60;4.80;;;2.60;99.90;;;;;;5030430;28;20505;-73
2021/11/29 02:40:35;;;;;;;9.60;5.90;;;2.60;99.90;;;;;;5031496;28;20168;-72
2021/11/29 02:43:01;;;;;;;9.77;5.20;;;2.60;99.90;;;;;;5032393;28;20248;-72
2021/11/29 02:45:30;;;;;;;11.20;6.87;;;2.50;99.90;;;;;;5035306;28;20425;-73
2021/11/29 02:47:56;;;;;;;11.30;6.27;;;2.30;99.90;;;;;;5033975;28;20186;-75
2021/11/29 02:50:21;;;;;;;13.70;8.00;;;2.40;99.90;;;;;;5033875;28;20911;-72
2021/11/29 02:52:48;;;;;;;3.90;3.50;;;2.30;99.90;;;;;;5035186;28;20222;-74
2021/11/29 02:55:14;;;;;;;11.67;6.00;;;2.40;99.90;;;;;;5034940;28;20176;-73
2021/11/29 02:57:40;;;;;;;7.17;5.27;;;2.40;99.90;;;;;;5033419;28;20429;-71
2021/11/29 03:00:11;;;;;;;9.17;6.90;;;2.40;99.90;;;;;;5034617;28;20865;-73
2021/11/29 03:02:36;;;;;;;7.33;5.53;;;2.50;99.90;;;;;;5012808;28;20530;-74
2021/11/29 03:05:09;;;;;;;12.57;6.10;;;2.40;99.90;;;;;;5029687;28;20434;-72
2021/11/29 03:07:35;;;;;;;6.33;4.67;;;2.40;99.90;;;;;;5034728;28;20557;-73
2021/11/29 03:10:07;;;;;;;12.77;6.27;;;2.50;99.90;;;;;;5034429;28;20417;-72
2021/11/29 03:12:32;;;;;;;9.50;5.13;;;2.50;99.90;;;;;;5034280;28;20172;-74
2021/11/29 03:14:58;;;;;;;11.87;6.10;;;2.50;99.90;;;;;;5037459;28;20425;-74
2021/11/29 03:17:29;;;;;;;15.07;8.27;;;2.50;99.90;;;;;;5053962;28;20690;-73
2021/11/29 03:19:58;;;;;;;10.90;6.23;;;2.60;99.90;;;;;;5053876;28;20219;-73
2021/11/29 03:22:23;;;;;;;10.23;7.27;;;2.40;99.90;;;;;;5054013;28;20410;-75
2021/11/29 03:25:00;;;;;;;11.30;6.70;;;2.40;99.90;;;;;;5054569;28;20493;-74
2021/11/29 03:27:26;;;;;;;9.83;4.07;;;2.50;99.90;;;;;;5054150;28;20201;-73
2021/11/29 03:29:57;;;;;;;8.57;6.87;;;2.50;99.90;;;;;;5054049;28;20406;-73
2021/11/29 03:32:59;;;;;;;9.83;6.63;;;2.50;99.90;;;;;;5053617;28;20167;-74
2021/11/29 03:35:25;;;;;;;12.90;6.50;;;2.40;99.90;;;;;;5054106;28;20413;-74
2021/11/29 03:37:51;;;;;;;9.80;6.70;;;2.50;99.90;;;;;;5054328;28;20496;-73
2021/11/29 03:40:16;;;;;;;12.47;9.63;;;2.50;99.90;;;;;;5053698;28;20600;-74
2021/11/29 03:43:08;;;;;;;11.70;7.20;;;2.40;99.90;;;;;;5054221;28;20652;-75
2021/11/29 03:45:35;;;;;;;8.17;6.17;;;2.40;99.90;;;;;;5052707;28;20579;-74
2021/11/29 03:48:00;;;;;;;9.93;6.40;;;2.50;99.90;;;;;;5053922;28;20476;-73
2021/11/29 03:50:26;;;;;;;18.67;8.67;;;2.40;99.90;;;;;;5053638;28;20795;-73
2021/11/29 03:52:52;;;;;;;14.10;6.17;;;2.40;99.90;;;;;;5053928;28;20178;-71
2021/11/29 03:55:22;;;;;;;7.83;4.97;;;2.50;99.90;;;;;;5053598;28;20624;-72
2021/11/29 03:57:51;;;;;;;16.37;7.50;;;2.50;99.90;;;;;;5052636;28;20656;-73
2021/11/29 04:00:23;;;;;;;12.47;6.70;;;2.50;99.90;;;;;;5052516;28;20480;-74
2021/11/29 04:02:51;;;;;;;17.97;9.80;;;2.50;99.90;;;;;;5052411;28;20409;-73
2021/11/29 04:05:17;;;;;;;13.27;6.77;;;2.50;99.90;;;;;;5053209;28;20414;-73
2021/11/29 04:07:43;;;;;;;19.17;8.37;;;2.50;99.90;;;;;;5053045;28;20398;-73
2021/11/29 04:10:09;;;;;;;17.83;6.40;;;2.60;99.90;;;;;;5053378;28;20258;-73
2021/11/29 04:12:38;;;;;;;12.73;6.93;;;2.50;99.90;;;;;;5053408;28;20179;-73
2021/11/29 04:15:04;;;;;;;18.40;7.80;;;2.50;99.90;;;;;;5052168;28;20895;-73
2021/11/29 04:17:30;;;;;;;15.33;7.57;;;2.50;99.90;;;;;;5053686;28;20483;-73
2021/11/29 04:19:56;;;;;;;15.10;8.27;;;2.50;99.90;;;;;;5052878;28;20461;-73
2021/11/29 04:22:21;;;;;;;13.97;7.97;;;2.50;99.90;;;;;;5052765;28;20167;-73
2021/11/29 04:24:47;;;;;;;9.60;5.00;;;2.40;99.90;;;;;;5052729;28;20167;-73
2021/11/29 04:27:13;;;;;;;8.47;5.93;;;2.50;99.90;;;;;;5052909;28;20194;-73
2021/11/29 04:29:42;;;;;;;20.30;6.20;;;2.50;99.90;;;;;;5052728;28;20853;-73
2021/11/29 04:32:09;;;;;;;14.03;9.60;;;2.50;99.90;;;;;;5053017;28;20179;-73
2021/11/29 04:34:35;;;;;;;14.37;7.50;;;2.40;99.90;;;;;;5052780;28;20421;-73
2021/11/29 04:37:02;;;;;;;16.37;10.87;;;2.40;99.90;;;;;;5052516;28;20790;-73
2021/11/29 04:39:30;;;;;;;9.60;6.77;;;2.40;99.90;;;;;;5052392;28;20468;-73
2021/11/29 04:41:55;;;;;;;19.33;7.03;;;2.40;99.90;;;;;;5052488;28;20837;-73
2021/11/29 04:44:21;;;;;;;13.60;6.77;;;2.40;99.90;;;;;;5050776;28;20496;-73
2021/11/29 04:46:47;;;;;;;9.30;6.40;;;2.40;99.90;;;;;;5051755;28;20187;-72
2021/11/29 04:49:13;;;;;;;10.10;5.73;;;2.40;99.90;;;;;;5052392;28;20546;-73
2021/11/29 04:51:38;;;;;;;12.23;7.30;;;2.50;99.90;;;;;;5052309;28;20191;-73
2021/11/29 04:54:04;;;;;;;18.40;7.60;;;2.50;99.90;;;;;;5052396;28;20174;-73
2021/11/29 04:56:30;;;;;;;14.43;8.00;;;2.50;99.90;;;;;;5052040;28;20190;-73
2021/11/29 04:58:57;;;;;;;6.43;5.87;;;2.50;99.90;;;;;;5052382;28;20199;-73
2021/11/29 05:01:23;;;;;;;11.57;8.70;;;2.50;99.90;;;;;;5052102;28;20756;-74
2021/11/29 05:03:48;;;;;;;13.47;8.57;;;2.50;99.90;;;;;;5052284;28;20413;-74
2021/11/29 05:06:14;;;;;;;15.50;8.10;;;2.50;99.90;;;;;;5051484;28;20418;-73
2021/11/29 05:08:40;;;;;;;10.77;7.13;;;2.50;99.90;;;;;;5052424;28;20541;-74
2021/11/29 05:11:05;;;;;;;11.60;8.07;;;2.50;99.90;;;;;;5052200;28;20175;-72
2021/11/29 05:13:31;;;;;;;9.03;5.00;;;2.50;99.90;;;;;;5052130;28;20228;-74
2021/11/29 05:15:57;;;;;;;13.70;8.00;;;2.50;99.90;;;;;;5051869;28;20711;-74
2021/11/29 05:18:23;;;;;;;16.83;9.77;;;2.50;99.90;;;;;;5052092;28;20464;-74
2021/11/29 05:20:50;;;;;;;11.43;7.87;;;2.50;99.90;;;;;;5052210;28;20412;-74
2021/11/29 05:23:16;;;;;;;18.13;10.53;;;2.50;99.90;;;;;;5052626;28;20467;-74
2021/11/29 05:25:43;;;;;;;21.40;8.20;;;2.50;99.90;;;;;;5051686;28;20980;-73
2021/11/29 05:28:09;;;;;;;20.10;8.10;;;2.60;99.90;;;;;;5051895;28;20816;-75
2021/11/29 05:30:35;;;;;;;10.93;6.47;;;2.60;99.90;;;;;;5051738;28;20406;-73
2021/11/29 05:33:00;;;;;;;16.57;7.67;;;2.50;99.90;;;;;;5051476;28;20475;-73
2021/11/29 05:35:26;;;;;;;13.17;7.63;;;2.50;99.90;;;;;;5051479;28;20167;-72
2021/11/29 05:37:52;;;;;;;16.87;9.37;;;2.50;99.90;;;;;;5051456;28;20171;-73
2021/11/29 05:40:17;;;;;;;13.03;7.53;;;2.60;99.90;;;;;;5051535;28;20210;-73
2021/11/29 05:42:44;;;;;;;13.67;8.40;;;2.60;99.90;;;;;;5051388;28;20163;-74
2021/11/29 05:45:11;;;;;;;10.33;9.10;;;2.60;99.90;;;;;;5051285;28;20167;-74
2021/11/29 05:47:37;;;;;;;17.50;9.03;;;2.60;99.90;;;;;;5051197;28;20397;-73
2021/11/29 05:50:05;;;;;;;10.67;6.93;;;2.60;99.90;;;;;;5051561;28;20409;-73
2021/11/29 05:52:30;;;;;;;14.70;9.90;;;2.70;99.90;;;;;;5033643;28;20183;-73
2021/11/29 05:54:56;;;;;;;16.77;6.43;;;2.70;99.90;;;;;;5031338;28;20467;-74
2021/11/29 05:57:22;;;;;;;27.43;9.03;;;2.80;99.90;;;;;;5031479;28;20191;-74
2021/11/29 05:59:47;;;;;;;17.80;8.20;;;2.70;99.90;;;;;;5031498;28;20199;-73
2021/11/29 06:02:13;;;;;;;10.17;6.87;;;2.70;99.90;;;;;;5031382;28;20214;-73
2021/11/29 06:04:39;;;;;;;15.50;8.83;;;2.70;99.90;;;;;;5031590;28;20527;-73
2021/11/29 06:07:04;;;;;;;12.57;8.10;;;2.70;99.90;;;;;;5031304;28;20195;-74
2021/11/29 06:09:30;;;;;;;13.53;11.03;;;2.70;99.90;;;;;;5031570;28;20700;-73
2021/11/29 06:11:56;;;;;;;9.07;6.20;;;2.60;99.90;;;;;;5031332;28;20199;-73
2021/11/29 06:14:21;;;;;;;13.87;9.53;;;2.70;99.90;;;;;;5031282;28;20780;-73
2021/11/29 06:16:47;;;;;;;11.90;6.87;;;2.60;99.90;;;;;;5032148;28;20187;-73
2021/11/29 06:19:13;;;;;;;10.87;6.87;;;2.70;99.90;;;;;;5034114;28;20217;-73
2021/11/29 06:21:38;;;;;;;12.23;6.50;;;2.70;99.90;;;;;;5035810;28;20657;-73
2021/11/29 06:24:04;;;;;;;12.13;6.93;;;2.70;99.90;;;;;;5035858;28;20163;-75
2021/11/29 06:26:30;;;;;;;10.43;8.40;;;2.70;99.90;;;;;;5035513;28;20634;-76
2021/11/29 06:28:56;;;;;;;14.67;9.70;;;2.70;99.90;;;;;;5037793;28;20191;-75
2021/11/29 06:31:21;;;;;;;11.60;7.60;;;2.70;99.90;;;;;;5040193;28;20202;-73
2021/11/29 06:33:47;;;;;;;10.17;7.23;;;2.70;99.90;;;;;;5041241;28;20527;-74
2021/11/29 06:36:13;;;;;;;10.30;6.43;;;2.60;99.90;;;;;;5040971;28;20198;-74
2021/11/29 06:38:38;;;;;;;14.53;6.17;;;2.70;99.90;;;;;;5043446;28;20200;-74
2021/11/29 06:41:04;;;;;;;10.53;5.83;;;2.70;99.90;;;;;;5044252;28;20661;-73
2021/11/29 06:43:30;;;;;;;8.97;4.00;;;2.60;99.90;;;;;;5039971;28;20164;-73
2021/11/29 06:45:56;;;;;;;14.20;7.07;;;2.70;99.90;;;;;;5040356;28;20560;-74
2021/11/29 06:48:22;;;;;;;9.80;5.93;;;2.70;99.90;;;;;;5039319;28;20171;-73
2021/11/29 06:50:51;;;;;;;14.53;6.60;;;2.70;99.90;;;;;;5040070;28;20163;-74
2021/11/29 06:53:16;;;;;;;9.07;7.27;;;2.60;99.90;;;;;;5040316;28;20793;-75
2021/11/29 06:55:45;;;;;;;15.10;8.73;;;2.60;99.90;;;;;;5035392;28;20414;-73
2021/11/29 06:58:11;;;;;;;13.13;7.50;;;2.60;99.90;;;;;;5034979;28;20170;-74
2021/11/29 07:00:36;;;;;;;15.57;7.73;;;2.70;99.90;;;;;;5035387;28;20402;-74
2021/11/29 07:03:02;;;;;;;9.27;8.27;;;2.80;99.90;;;;;;5026553;28;20258;-75
2021/11/29 07:05:28;;;;;;;14.90;6.73;;;2.70;99.90;;;;;;5016582;28;20168;-74
2021/11/29 07:07:55;;;;;;;11.63;7.33;;;2.70;99.90;;;;;;5016054;28;20199;-76
2021/11/29 07:10:24;;;;;;;11.73;6.80;;;2.70;99.90;;;;;;5016032;28;20774;-74
2021/11/29 07:12:51;;;;;;;13.10;5.60;;;2.70;99.90;;;;;;5026149;28;20484;-74
2021/11/29 07:15:22;;;;;;;19.47;7.40;;;2.70;99.90;;;;;;5025028;28;20437;-74
2021/11/29 07:17:48;;;;;;;9.87;7.17;;;2.70;99.90;;;;;;5026721;28;20460;-74
2021/11/29 07:20:14;;;;;;;12.70;7.83;;;2.80;99.90;;;;;;5025498;28;20470;-75
2021/11/29 07:22:40;;;;;;;14.73;7.23;;;2.80;99.90;;;;;;5025514;28;20477;-75
2021/11/29 07:25:06;;;;;;;12.20;7.83;;;2.80;99.90;;;;;;5037029;28;20965;-73
2021/11/29 07:27:33;;;;;;;15.60;7.23;;;2.70;99.90;;;;;;5038580;28;20419;-75
2021/11/29 07:30:01;;;;;;;10.67;6.37;;;2.80;99.90;;;;;;5035721;28;20456;-70
2021/11/29 07:32:29;;;;;;;17.40;7.03;;;2.70;99.90;;;;;;5036107;28;20469;-74
2021/11/29 07:34:56;;;;;;;11.90;8.07;;;2.70;99.90;;;;;;5034733;28;20489;-74
2021/11/29 07:37:21;;;;;;;7.50;6.73;;;2.60;99.90;;;;;;5033429;28;20431;-74
2021/11/29 07:39:48;;;;;;;7.40;5.60;;;2.70;99.90;;;;;;5034829;28;21379;-74
2021/11/29 07:42:15;;;;;;;8.37;5.57;;;2.70;99.90;;;;;;5034715;28;20168;-73
2021/11/29 07:44:41;;;;;;;8.87;6.40;;;2.80;99.90;;;;;;5034646;28;20398;-73
2021/11/29 07:47:07;;;;;;;10.83;7.53;;;2.80;99.90;;;;;;5034568;28;20418;-73
2021/11/29 07:49:33;;;;;;;13.87;7.93;;;2.80;99.90;;;;;;5034721;28;20403;-74
2021/11/29 07:52:00;;;;;;;13.37;8.10;;;2.80;99.90;;;;;;5035303;28;20497;-74
2021/11/29 07:54:25;;;;;;;13.53;7.70;;;2.90;99.90;;;;;;5034966;28;20521;-74
2021/11/29 07:56:51;;;;;;;18.33;8.40;;;2.90;99.90;;;;;;5034564;28;20846;-74
2021/11/29 07:59:17;;;;;;;13.50;5.97;;;2.90;99.90;;;;;;5034684;28;20195;-74
2021/11/29 08:01:42;;;;;;;18.23;5.93;;;2.90;99.90;;;;;;5034649;28;20172;-73
2021/11/29 08:04:08;;;;;;;14.20;8.43;;;3.00;99.90;;;;;;5034365;28;20246;-74
2021/11/29 08:06:33;;;;;;;13.43;7.23;;;3.00;99.90;;;;;;5034194;28;20286;-74
2021/11/29 08:08:59;;;;;;;13.17;6.00;;;3.00;99.90;;;;;;5033994;28;20195;-74
2021/11/29 08:11:25;;;;;;;12.60;6.07;;;2.90;99.90;;;;;;5033730;28;20172;-73
2021/11/29 08:13:51;;;;;;;10.77;8.90;;;2.90;99.90;;;;;;5034241;28;20174;-73
2021/11/29 08:16:16;;;;;;;7.10;5.37;;;2.90;99.90;;;;;;5029504;28;20280;-73
2021/11/29 08:18:42;;;;;;;11.70;7.27;;;2.90;99.90;;;;;;5033386;28;20206;-73
2021/11/29 08:21:08;;;;;;;10.53;6.93;;;2.90;99.90;;;;;;5034039;28;20164;-72
2021/11/29 08:23:34;;;;;;;8.80;5.70;;;2.90;99.90;;;;;;5033633;28;20775;-73
2021/11/29 08:26:00;;;;;;;12.10;6.70;;;2.90;99.90;;;;;;5033723;28;20184;-73
2021/11/29 08:28:26;;;;;;;7.40;5.27;;;2.90;99.90;;;;;;5033841;28;20413;-73
2021/11/29 08:30:52;;;;;;;12.20;6.03;;;2.80;99.90;;;;;;5033711;28;20402;-73
2021/11/29 08:33:18;;;;;;;23.03;8.90;;;2.80;99.90;;;;;;5033633;28;20595;-71
2021/11/29 08:35:46;;;;;;;11.27;6.70;;;2.90;99.90;;;;;;5033798;28;20592;-71
2021/11/29 08:38:16;;;;;;;13.23;7.13;;;2.80;99.90;;;;;;5034550;28;20406;-73
2021/11/29 08:40:43;;;;;;;9.20;7.97;;;2.80;99.90;;;;;;5034656;28;20410;-73
2021/11/29 08:43:13;;;;;;;11.27;5.60;;;2.90;99.90;;;;;;5035099;28;20777;-73
2021/11/29 08:45:40;;;;;;;15.60;7.50;;;2.90;99.90;;;;;;5033431;28;20460;-73
2021/11/29 08:48:08;;;;;;;21.40;7.63;;;2.80;99.90;;;;;;5034339;28;20409;-72
2021/11/29 08:50:36;;;;;;;17.43;7.53;;;2.80;99.90;;;;;;5030867;28;20434;-74
2021/11/29 08:53:06;;;;;;;10.90;5.47;;;2.90;99.90;;;;;;5022204;28;20752;-74
2021/11/29 08:55:32;;;;;;;15.83;6.13;;;2.90;99.90;;;;;;5032005;28;20829;-72
2021/11/29 08:57:59;;;;;;;14.83;8.77;;;3.00;99.90;;;;;;5033427;28;20414;-72
2021/11/29 09:00:26;;;;;;;12.47;5.00;;;2.90;99.90;;;;;;5033109;28;20457;-74
2021/11/29 09:02:52;;;;;;;7.00;5.00;;;2.90;99.90;;;;;;5027723;28;20805;-73
2021/11/29 09:05:18;;;;;;;10.97;8.53;;;2.90;99.90;;;;;;5031013;28;20410;-74
2021/11/29 09:07:45;;;;;;;10.90;5.80;;;3.00;99.90;;;;;;5033294;28;20260;-74
2021/11/29 09:10:12;;;;;;;9.93;5.90;;;3.00;99.90;;;;;;5033685;28;20552;-72
2021/11/29 09:12:38;;;;;;;12.27;5.73;;;3.00;99.90;;;;;;5033178;28;20465;-74
2021/11/29 09:15:11;;;;;;;11.17;5.37;;;3.10;99.90;;;;;;5033442;28;20419;-74
2021/11/29 09:17:37;;;;;;;9.80;6.27;;;3.00;99.90;;;;;;5037490;28;20803;-74
2021/11/29 09:20:09;;;;;;;8.83;5.83;;;3.00;99.90;;;;;;5052977;28;20453;-74
2021/11/29 09:22:36;;;;;;;14.27;7.10;;;3.10;99.90;;;;;;5053433;28;20397;-72
2021/11/29 09:25:04;;;;;;;11.23;6.47;;;3.20;99.90;;;;;;5045649;28;20458;-71
2021/11/29 09:27:31;;;;;;;12.80;6.93;;;3.20;99.90;;;;;;5032406;28;20429;-73
2021/11/29 09:29:57;;;;;;;6.93;5.50;;;3.20;99.90;;;;;;5032517;28;20509;-73
2021/11/29 09:32:23;;;;;;;12.23;6.67;;;3.20;99.90;;;;;;5032010;28;20855;-73
2021/11/29 09:34:49;;;;;;;12.53;7.87;;;3.30;99.90;;;;;;5031894;28;20426;-74
2021/11/29 09:37:16;;;;;;;11.90;6.03;;;3.30;99.90;;;;;;5032135;28;20426;-74
2021/11/29 09:39:42;;;;;;;9.50;6.63;;;3.40;99.90;;;;;;5032165;28;20638;-73
2021/11/29 09:42:07;;;;;;;11.53;6.90;;;3.40;99.90;;;;;;5031157;28;20398;-75
2021/11/29 09:44:33;;;;;;;14.77;5.97;;;3.40;99.90;;;;;;5030818;28;20406;-71
2021/11/29 09:46:59;;;;;;;10.47;7.17;;;3.50;99.90;;;;;;5032358;28;20248;-72
2021/11/29 09:49:45;;;;;;;13.30;6.47;;;3.50;99.90;;;;;;5032405;28;20175;-74
2021/11/29 09:52:11;;;;;;;11.67;6.20;;;3.50;99.90;;;;;;5034373;28;20428;-74
2021/11/29 09:54:37;;;;;;;12.80;5.90;;;3.30;99.90;;;;;;5037049;28;20402;-74
2021/11/29 09:57:03;;;;;;;11.03;6.43;;;3.30;99.90;;;;;;5036813;28;20195;-74
2021/11/29 09:59:29;;;;;;;15.13;5.17;;;3.40;99.90;;;;;;5036470;28;20567;-74
2021/11/29 10:01:55;;;;;;;11.43;7.30;;;3.30;99.90;;;;;;5035988;28;20525;-74
2021/11/29 10:04:21;;;;;;;11.37;6.10;;;3.30;99.90;;;;;;5037332;28;20187;-74
2021/11/29 10:07:00;;;;;;;15.77;9.53;;;3.30;99.90;;;;;;5035918;28;20481;-76
2021/11/29 10:09:38;;;;;;;6.87;5.27;;;3.20;99.90;;;;;;5037435;28;20413;-74
2021/11/29 10:12:09;;;;;;;10.63;5.97;;;3.10;99.90;;;;;;5037277;28;20760;-75
2021/11/29 10:14:36;;;;;;;11.37;7.03;;;3.10;99.90;;;;;;5037409;28;20416;-74
2021/11/29 10:17:02;;;;;;;7.50;6.10;;;3.20;99.90;;;;;;5037459;28;20438;-74
2021/11/29 10:19:28;;;;;;;8.40;5.00;;;3.40;99.90;;;;;;5036761;28;20511;-74
2021/11/29 10:22:16;;;;;;;16.03;7.53;;;3.50;99.90;;;;;;5037555;28;20196;-75
2021/11/29 10:24:42;;;;;;;11.03;5.47;;;3.50;99.90;;;;;;5036153;28;20430;-74
2021/11/29 10:27:07;;;;;;;11.53;6.47;;;3.40;99.90;;;;;;5036710;28;20425;-73
2021/11/29 10:29:33;;;;;;;14.10;7.53;;;3.40;99.90;;;;;;5034915;28;20785;-74
2021/11/29 10:31:59;;;;;;;12.87;8.07;;;3.50;99.90;;;;;;5036448;28;20176;-73
2021/11/29 10:34:31;;;;;;;12.07;6.40;;;3.40;99.90;;;;;;5036435;28;20406;-73
2021/11/29 10:37:07;;;;;;;21.43;7.37;;;3.40;99.90;;;;;;5035928;28;20960;-73
2021/11/29 10:39:35;;;;;;;13.53;8.13;;;3.50;99.90;;;;;;5037094;28;20465;-74
2021/11/29 10:42:05;;;;;;;13.17;6.60;;;3.50;99.90;;;;;;5035235;28;20418;-73
2021/11/29 10:44:33;;;;;;;13.37;7.70;;;3.50;99.90;;;;;;5035916;28;20414;-72
2021/11/29 10:47:05;;;;;;;14.57;6.90;;;3.60;99.90;;;;;;5034571;28;20446;-73
2021/11/29 10:49:33;;;;;;;11.93;5.13;;;3.70;99.90;;;;;;5034862;28;20418;-73
2021/11/29 10:52:01;;;;;;;12.77;5.97;;;3.70;99.90;;;;;;5035708;28;20426;-75
2021/11/29 10:54:30;;;;;;;11.67;6.03;;;3.60;99.90;;;;;;5035577;28;20414;-74
2021/11/29 10:56:57;;;;;;;6.93;5.03;;;3.70;99.90;;;;;;5035636;28;20431;-74
2021/11/29 10:59:34;;;;;;;9.97;5.33;;;3.70;99.90;;;;;;5033872;28;20481;-73
2021/11/29 11:02:02;;;;;;;8.40;5.73;;;3.80;99.90;;;;;;5035604;28;20410;-72
2021/11/29 11:04:30;;;;;;;12.37;5.87;;;3.80;99.90;;;;;;5034799;28;20918;-75
2021/11/29 11:06:58;;;;;;;9.33;4.80;;;3.70;99.90;;;;;;5036182;28;20422;-73
2021/11/29 11:09:36;;;;;;;7.97;7.10;;;3.70;99.90;;;;;;5035154;28;20445;-73
2021/11/29 11:12:14;;;;;;;13.00;4.30;;;3.70;99.90;;;;;;5034979;28;20501;-72
2021/11/29 11:14:47;;;;;;;5.13;4.57;;;3.80;99.90;;;;;;5034848;28;20771;-73
2021/11/29 11:17:13;;;;;;;9.80;6.37;;;3.90;99.90;;;;;;5035073;28;20479;-73
2021/11/29 11:19:44;;;;;;;14.20;8.40;;;3.90;99.90;;;;;;5034822;28;20458;-73
2021/11/29 11:22:12;;;;;;;7.40;5.10;;;3.70;99.90;;;;;;5035521;28;20938;-72
2021/11/29 11:24:41;;;;;;;8.17;5.60;;;3.60;99.90;;;;;;5035047;28;20851;-73
2021/11/29 11:27:07;;;;;;;14.97;5.83;;;3.60;99.90;;;;;;5034684;28;20457;-72
2021/11/29 11:29:37;;;;;;;12.60;5.60;;;3.70;99.90;;;;;;5034714;28;20910;-73
2021/11/29 11:32:27;;;;;;;6.90;5.17;;;3.70;99.90;;;;;;5034575;28;20422;-73
2021/11/29 11:34:59;;;;;;;6.07;4.57;;;3.70;99.90;;;;;;5034542;28;20406;-71
2021/11/29 11:37:33;;;;;;;6.93;3.67;;;3.80;99.90;;;;;;5034228;28;20847;-72
2021/11/29 11:39:59;;;;;;;11.50;6.50;;;4.00;99.90;;;;;;5034061;28;20462;-72
2021/11/29 11:42:26;;;;;;;11.90;3.77;;;4.00;99.90;;;;;;5034446;28;20782;-73
2021/11/29 11:44:53;;;;;;;10.33;6.17;;;4.00;99.90;;;;;;5034148;28;20410;-73
2021/11/29 11:47:19;;;;;;;6.67;4.07;;;4.00;99.90;;;;;;5034015;28;20813;-76
2021/11/29 11:49:47;;;;;;;6.07;3.57;;;4.10;99.90;;;;;;5034070;28;20456;-75
2021/11/29 11:52:18;;;;;;;11.40;6.60;;;4.00;99.90;;;;;;5034223;28;20449;-74
2021/11/29 11:54:45;;;;;;;8.93;6.00;;;3.90;99.90;;;;;;5034274;28;20402;-73
2021/11/29 11:57:15;;;;;;;6.60;5.30;;;3.90;99.90;;;;;;5034317;28;20515;-74
2021/11/29 11:59:54;;;;;;;9.07;4.10;;;4.00;99.90;;;;;;5034602;28;20466;-74
2021/11/29 12:02:26;;;;;;;6.73;2.93;;;4.20;99.90;;;;;;5034347;28;20916;-73
2021/11/29 12:05:17;;;;;;;8.67;5.83;;;4.00;99.90;;;;;;5034041;28;20513;-75
2021/11/29 12:07:45;;;;;;;16.60;7.07;;;4.10;99.90;;;;;;5027314;28;20402;-72
2021/11/29 12:10:41;;;;;;;10.13;4.13;;;4.20;99.90;;;;;;5035166;28;20410;-74
2021/11/29 12:13:11;;;;;;;12.63;4.00;;;4.20;99.90;;;;;;5015067;28;20437;-74
2021/11/29 12:15:58;;;;;;;7.40;3.67;;;4.00;99.90;;;;;;5013873;28;20481;-74
2021/11/29 12:18:41;;;;;;;5.67;3.30;;;4.00;99.90;;;;;;5013098;28;20430;-73
2021/11/29 12:21:23;;;;;;;6.70;5.97;;;4.00;99.90;;;;;;5014069;28;20407;-74
2021/11/29 12:24:11;;;;;;;6.80;4.90;;;4.00;99.90;;;;;;5013816;28;20457;-74
2021/11/29 12:26:46;;;;;;;4.67;3.50;;;3.90;99.90;;;;;;5013394;28;20779;-76
2021/11/29 12:29:20;;;;;;;6.20;3.30;;;3.90;99.90;;;;;;5014317;28;20398;-74
2021/11/29 12:31:50;;;;;;;8.80;3.97;;;4.00;99.90;;;;;;5013688;28;20848;-72
2021/11/29 12:34:55;;;;;;;8.30;3.70;;;3.80;99.90;;;;;;5014031;28;20833;-73
2021/11/29 12:37:39;;;;;;;3.73;3.43;;;3.80;99.90;;;;;;5013387;28;20826;-74
2021/11/29 12:40:05;;;;;;;6.60;3.30;;;4.00;99.90;;;;;;5013012;28;20969;-71
2021/11/29 12:42:33;;;;;;;10.00;4.10;;;4.30;99.90;;;;;;5013597;28;20403;-73
2021/11/29 12:45:08;;;;;;;8.90;3.20;;;4.40;99.90;;;;;;5013200;28;20422;-72
2021/11/29 12:47:43;;;;;;;5.80;3.53;;;4.20;99.90;;;;;;5013528;28;20454;-75
2021/11/29 12:50:33;;;;;;;8.07;4.27;;;4.40;99.90;;;;;;5013201;28;20406;-74
2021/11/29 12:53:10;;;;;;;4.50;3.30;;;4.40;99.90;;;;;;5028874;28;21087;-73
2021/11/29 12:55:37;;;;;;;6.90;2.90;;;4.50;99.90;;;;;;5032655;28;20430;-74